Time;durP1;ratioP1;P1;durP2;ratioP2;P2;SDS_P1;SDS_P2;PMS_P1;PMS_P2;Temp;Humidity;BMP_temperature;BMP_pressure;BME280_temperature;BME280_humidity;BME280_pressure;Samples;Min_cycle;Max_cycle;Signal;HPM_P1;HPM_P2
2021/05/18 00:00:49;;;;;;;9.38;4.10;;;10.40;99.90;;;;;;5065321;28;20025;-76
2021/05/18 00:03:17;;;;;;;6.78;3.65;;;10.40;99.90;;;;;;5063847;28;20108;-76
2021/05/18 00:05:47;;;;;;;7.70;3.03;;;10.50;99.90;;;;;;5064897;28;20021;-81
2021/05/18 00:08:14;;;;;;;8.80;3.72;;;10.40;99.90;;;;;;5065177;28;20029;-76
2021/05/18 00:13:35;;;;;;;8.80;3.20;;;10.40;99.90;;;;;;5065064;28;20056;-81
2021/05/18 00:16:02;;;;;;;10.38;4.20;;;10.30;99.90;;;;;;5065032;28;20393;-77
2021/05/18 00:18:28;;;;;;;5.88;2.83;;;10.30;99.90;;;;;;5065067;28;20045;-74
2021/05/18 00:20:55;;;;;;;9.25;4.32;;;10.30;99.90;;;;;;5063708;28;20032;-76
2021/05/18 00:23:22;;;;;;;8.15;3.65;;;10.30;99.90;;;;;;5063678;28;20017;-77
2021/05/18 00:25:47;;;;;;;9.07;3.45;;;10.30;99.90;;;;;;5063329;28;20025;-76
2021/05/18 00:28:13;;;;;;;9.52;3.80;;;10.30;99.90;;;;;;5064927;28;20027;-74
2021/05/18 00:30:40;;;;;;;12.77;4.28;;;10.30;99.90;;;;;;5064766;28;20040;-75
2021/05/18 00:33:15;;;;;;;12.40;3.92;;;10.30;99.90;;;;;;5064185;28;20017;-74
2021/05/18 00:35:42;;;;;;;5.68;2.92;;;10.30;99.90;;;;;;5064772;28;20061;-75
2021/05/18 00:38:09;;;;;;;6.82;3.22;;;10.30;99.90;;;;;;5064565;28;20025;-77
2021/05/18 00:40:35;;;;;;;8.35;3.42;;;10.30;99.90;;;;;;5063116;28;20088;-74
2021/05/18 00:43:00;;;;;;;8.52;3.08;;;10.30;99.90;;;;;;5064852;28;20020;-74
2021/05/18 00:45:32;;;;;;;8.43;3.45;;;10.30;99.90;;;;;;5064495;28;20068;-75
2021/05/18 00:47:59;;;;;;;11.73;4.07;;;10.30;99.90;;;;;;5064817;28;20025;-76
2021/05/18 00:50:26;;;;;;;9.23;3.50;;;10.30;99.90;;;;;;5064362;28;20112;-76
2021/05/18 00:52:51;;;;;;;7.30;3.60;;;10.30;99.90;;;;;;5064207;28;20053;-73
2021/05/18 00:55:23;;;;;;;9.38;3.80;;;10.40;99.90;;;;;;5064424;28;20126;-75
2021/05/18 01:00:33;;;;;;;10.63;4.07;;;10.40;99.90;;;;;;5064367;28;20027;-77
2021/05/18 01:02:59;;;;;;;8.50;3.55;;;10.40;99.90;;;;;;5064655;28;20045;-80
2021/05/18 01:06:19;;;;;;;6.85;3.78;;;10.40;99.90;;;;;;5063089;28;20031;-78
2021/05/18 01:08:11;;;;;;;12.15;3.92;;;10.30;99.90;;;;;;5064065;28;20025;-76
2021/05/18 01:10:37;;;;;;;7.75;3.70;;;10.40;99.90;;;;;;5064392;28;20099;-73
2021/05/18 01:13:03;;;;;;;7.95;4.28;;;10.40;99.90;;;;;;5064092;28;20055;-75
2021/05/18 01:15:29;;;;;;;10.07;3.55;;;10.40;99.90;;;;;;5064245;28;20036;-75
2021/05/18 01:17:55;;;;;;;9.55;4.00;;;10.30;99.90;;;;;;5063487;28;20031;-76
2021/05/18 01:20:21;;;;;;;10.88;4.00;;;10.40;99.90;;;;;;5064267;28;20068;-74
2021/05/18 01:22:48;;;;;;;7.07;3.95;;;10.30;99.90;;;;;;5064081;28;20053;-75
2021/05/18 01:25:16;;;;;;;8.20;3.20;;;10.40;99.90;;;;;;5064260;28;20033;-75
2021/05/18 01:27:42;;;;;;;10.88;3.95;;;10.40;99.90;;;;;;5064054;28;20021;-73
2021/05/18 01:30:09;;;;;;;7.88;3.33;;;10.50;99.90;;;;;;5062607;28;20029;-74
2021/05/18 01:32:35;;;;;;;10.63;3.25;;;10.50;99.90;;;;;;5064312;28;20074;-76
2021/05/18 01:35:02;;;;;;;12.65;3.70;;;10.50;99.90;;;;;;5063731;28;20037;-76
2021/05/18 01:37:28;;;;;;;6.65;3.30;;;10.50;99.90;;;;;;5063346;28;20052;-75
2021/05/18 01:45:09;;;;;;;7.40;2.83;;;10.50;99.90;;;;;;5066887;28;20056;-74
2021/05/18 01:47:34;;;;;;;6.00;2.72;;;10.50;99.90;;;;;;5066471;28;20053;-76
2021/05/18 01:50:01;;;;;;;7.78;3.53;;;10.50;99.90;;;;;;5067555;28;20032;-75
2021/05/18 01:52:27;;;;;;;6.82;3.65;;;10.50;99.90;;;;;;5067548;28;20401;-75
2021/05/18 01:54:52;;;;;;;12.55;3.33;;;10.50;99.90;;;;;;5067749;28;20051;-75
2021/05/18 01:57:22;;;;;;;9.30;3.08;;;10.50;99.90;;;;;;5067530;28;20092;-74
2021/05/18 01:59:49;;;;;;;13.55;4.18;;;10.50;99.90;;;;;;5067589;28;20091;-76
2021/05/18 02:02:15;;;;;;;7.10;3.97;;;10.50;99.90;;;;;;5067616;28;20037;-76
2021/05/18 02:04:51;;;;;;;7.68;3.60;;;10.50;99.90;;;;;;5067465;28;20050;-75
2021/05/18 02:07:26;;;;;;;9.90;3.90;;;10.50;99.90;;;;;;5067429;28;20025;-75
2021/05/18 02:09:52;;;;;;;8.27;3.28;;;10.50;99.90;;;;;;5067426;28;20082;-74
2021/05/18 02:12:18;;;;;;;6.88;3.83;;;10.50;99.90;;;;;;5067351;28;20033;-75
2021/05/18 02:14:47;;;;;;;13.98;4.55;;;10.40;99.90;;;;;;5066197;28;20431;-76
2021/05/18 02:25:08;;;;;;;21.20;3.88;;;10.50;99.90;;;;;;5066878;28;20032;-75
2021/05/18 02:27:34;;;;;;;12.30;4.72;;;10.50;99.90;;;;;;5066955;28;20087;-75
2021/05/18 02:29:59;;;;;;;9.25;4.00;;;10.50;99.90;;;;;;5067058;28;20033;-73
2021/05/18 02:32:27;;;;;;;6.80;3.70;;;10.50;99.90;;;;;;5067302;28;20025;-75
2021/05/18 02:34:52;;;;;;;9.13;3.72;;;10.40;99.90;;;;;;5067051;28;20037;-73
2021/05/18 02:37:18;;;;;;;6.68;4.53;;;10.40;99.90;;;;;;5065190;28;20028;-74
2021/05/18 02:39:44;;;;;;;12.10;4.30;;;10.40;99.90;;;;;;5067037;28;20029;-74
2021/05/18 02:42:10;;;;;;;6.80;3.75;;;10.40;99.90;;;;;;5066733;28;20474;-75
2021/05/18 02:49:55;;;;;;;14.02;4.75;;;10.30;99.90;;;;;;5067003;28;20031;-77
2021/05/18 02:52:21;;;;;;;9.20;4.60;;;10.30;99.90;;;;;;5066152;28;20053;-73
2021/05/18 02:54:53;;;;;;;13.60;4.53;;;10.30;99.90;;;;;;5066251;28;20052;-74
2021/05/18 02:57:32;;;;;;;15.70;5.95;;;10.30;99.90;;;;;;5066409;28;20124;-74
2021/05/18 03:00:06;;;;;;;14.23;4.57;;;10.30;99.90;;;;;;5065504;28;20025;-74
2021/05/18 03:02:31;;;;;;;10.40;4.32;;;10.30;99.90;;;;;;5066866;28;20021;-74
2021/05/18 03:04:57;;;;;;;23.65;5.82;;;10.30;99.90;;;;;;5066541;28;20033;-75
2021/05/18 03:07:23;;;;;;;11.65;5.22;;;10.30;99.90;;;;;;5066442;28;20036;-75
2021/05/18 03:09:48;;;;;;;11.35;5.18;;;10.20;99.90;;;;;;5066304;28;20079;-74
2021/05/18 03:12:14;;;;;;;13.40;6.53;;;10.30;99.90;;;;;;5066094;28;20060;-74
2021/05/18 03:14:40;;;;;;;14.02;4.57;;;10.30;99.90;;;;;;5066037;28;20040;-74
2021/05/18 03:17:06;;;;;;;11.38;4.57;;;10.30;99.90;;;;;;5066299;28;20044;-75
2021/05/18 03:19:32;;;;;;;11.57;4.05;;;10.30;99.90;;;;;;5064697;28;20029;-74
2021/05/18 03:21:57;;;;;;;15.20;5.57;;;10.30;99.90;;;;;;5066142;28;20027;-76
2021/05/18 03:24:23;;;;;;;13.02;4.88;;;10.20;99.90;;;;;;5066380;28;20025;-74
2021/05/18 03:26:50;;;;;;;10.48;4.22;;;10.20;99.90;;;;;;5064366;28;20032;-75
2021/05/18 03:29:27;;;;;;;11.52;5.07;;;10.20;99.90;;;;;;5064498;28;20032;-74
2021/05/18 03:34:38;;;;;;;11.27;4.82;;;10.20;99.90;;;;;;5065555;28;20040;-75
2021/05/18 03:37:17;;;;;;;10.88;4.75;;;10.20;99.90;;;;;;5065868;28;20032;-75
2021/05/18 03:39:46;;;;;;;13.48;4.53;;;10.20;99.90;;;;;;5064395;28;20048;-75
2021/05/18 03:42:25;;;;;;;10.43;3.47;;;10.10;99.90;;;;;;5065673;28;20045;-73
2021/05/18 03:53:00;;;;;;;13.43;4.13;;;10.10;99.90;;;;;;5065357;28;20071;-74
2021/05/18 03:58:36;;;;;;;15.75;4.68;;;10.10;99.90;;;;;;5065455;28;20039;-74
2021/05/18 04:04:31;;;;;;;10.27;4.40;;;10.10;99.90;;;;;;5064959;28;20060;-73
2021/05/18 04:17:16;;;;;;;21.08;5.70;;;10.10;99.90;;;;;;5064895;28;20098;-73
2021/05/18 04:19:51;;;;;;;18.27;5.18;;;10.10;99.90;;;;;;5065360;28;20040;-73
2021/05/18 04:25:42;;;;;;;13.07;5.10;;;10.10;99.90;;;;;;5064881;28;20447;-75
2021/05/18 04:42:16;;;;;;;12.93;3.97;;;10.20;99.90;;;;;;5064806;28;20040;-74
2021/05/18 04:52:34;;;;;;;15.45;4.85;;;10.20;99.90;;;;;;5064206;28;19917;-76
2021/05/18 05:00:51;;;;;;;7.88;4.00;;;10.40;99.90;;;;;;5064686;28;20044;-75
2021/05/18 05:16:26;;;;;;;;;;;10.50;99.90;;;;;;5068838;28;20062;-74
2021/05/18 05:18:53;;;;;;;17.25;4.78;;;10.50;99.90;;;;;;5079254;28;20446;-75
2021/05/18 05:21:21;;;;;;;10.43;4.20;;;10.50;99.90;;;;;;5082304;28;20091;-74
2021/05/18 05:23:48;;;;;;;7.95;3.45;;;10.50;99.90;;;;;;5068355;28;20135;-70
2021/05/18 05:26:13;;;;;;;8.82;3.83;;;10.50;99.90;;;;;;5068388;28;20043;-72
2021/05/18 05:28:39;;;;;;;15.00;4.07;;;10.50;99.90;;;;;;5066128;28;20029;-73
2021/05/18 05:31:04;;;;;;;10.95;4.60;;;10.50;99.90;;;;;;5068141;28;20081;-73
2021/05/18 05:33:30;;;;;;;14.25;5.38;;;10.50;99.90;;;;;;5068337;28;20056;-76
2021/05/18 05:35:55;;;;;;;12.90;4.68;;;10.50;99.90;;;;;;5068047;28;20075;-74
2021/05/18 05:38:23;;;;;;;23.77;4.93;;;10.60;99.90;;;;;;5066847;28;20033;-72
2021/05/18 05:40:48;;;;;;;11.27;4.65;;;10.60;99.90;;;;;;5066822;28;20583;-71
2021/05/18 05:43:14;;;;;;;18.30;4.97;;;10.70;99.90;;;;;;5067491;28;20029;-70
2021/05/18 05:45:40;;;;;;;13.38;5.38;;;10.70;99.90;;;;;;5068064;28;20025;-71
2021/05/18 05:48:06;;;;;;;11.27;5.10;;;10.80;99.90;;;;;;5067743;28;20021;-72
2021/05/18 05:50:32;;;;;;;7.10;3.60;;;10.80;99.90;;;;;;5066080;28;20025;-72
2021/05/18 05:52:58;;;;;;;8.80;4.18;;;10.90;99.90;;;;;;5067446;28;20132;-73
2021/05/18 05:55:24;;;;;;;8.65;4.18;;;11.00;99.90;;;;;;5066584;28;20041;-72
2021/05/18 05:57:50;;;;;;;13.85;4.65;;;11.10;99.90;;;;;;5067528;28;20028;-74
2021/05/18 06:00:15;;;;;;;10.40;5.07;;;11.10;99.90;;;;;;5067582;28;20044;-73
2021/05/18 06:02:41;;;;;;;7.63;4.30;;;11.10;99.90;;;;;;5067383;28;20039;-74
2021/05/18 06:05:07;;;;;;;12.65;4.47;;;11.20;99.90;;;;;;5067321;28;20093;-77
2021/05/18 06:07:34;;;;;;;11.70;4.97;;;11.20;99.90;;;;;;5067510;28;20068;-73
2021/05/18 06:10:26;;;;;;;10.13;4.32;;;11.30;99.90;;;;;;5067557;28;20093;-71
2021/05/18 06:34:34;;;;;;;7.32;3.60;;;11.80;99.90;;;;;;5067151;28;20052;-72
2021/05/18 06:37:25;;;;;;;9.80;4.32;;;11.80;99.90;;;;;;5066624;28;20461;-73
2021/05/18 06:47:31;;;;;;;9.18;4.03;;;12.00;99.90;;;;;;5086870;28;20135;-75
2021/05/18 06:52:40;;;;;;;7.82;3.65;;;12.00;99.90;;;;;;5086137;28;20127;-71
2021/05/18 06:55:12;;;;;;;9.75;4.22;;;12.10;99.90;;;;;;5086531;28;20078;-70
2021/05/18 06:57:41;;;;;;;4.93;2.70;;;12.10;99.90;;;;;;5086566;28;20020;-75
2021/05/18 07:00:09;;;;;;;4.78;3.22;;;12.10;99.90;;;;;;5080535;28;20115;-74
2021/05/18 07:02:39;;;;;;;8.18;3.35;;;12.20;99.90;;;;;;5070305;28;20029;-73
2021/05/18 07:05:20;;;;;;;7.43;3.58;;;12.20;99.90;;;;;;5081744;28;20033;-71
2021/05/18 07:07:49;;;;;;;4.53;3.25;;;12.30;99.90;;;;;;5084934;28;20036;-78
2021/05/18 07:10:15;;;;;;;11.77;3.22;;;12.40;99.90;;;;;;5078384;28;20032;-73
2021/05/18 07:12:41;;;;;;;7.28;3.20;;;12.40;99.90;;;;;;5068739;28;20439;-75
2021/05/18 07:15:07;;;;;;;5.82;2.95;;;12.40;99.90;;;;;;5073148;28;20034;-72
2021/05/18 07:17:33;;;;;;;5.30;2.70;;;12.50;99.90;;;;;;5086125;28;20016;-74
2021/05/18 07:19:59;;;;;;;6.97;3.53;;;12.50;99.90;;;;;;5084683;28;20021;-75
2021/05/18 07:22:24;;;;;;;4.40;2.78;;;12.50;99.90;;;;;;5070665;28;20108;-74
2021/05/18 07:24:50;;;;;;;6.07;3.28;;;12.50;99.90;;;;;;5066024;28;20029;-73
2021/05/18 07:27:16;;;;;;;3.95;2.85;;;12.50;99.90;;;;;;5065722;28;21032;-73
2021/05/18 07:29:41;;;;;;;4.63;2.65;;;12.50;99.90;;;;;;5065891;28;20039;-74
2021/05/18 07:32:07;;;;;;;3.15;2.05;;;12.60;99.90;;;;;;5065476;28;20048;-72
2021/05/18 07:34:32;;;;;;;4.55;2.38;;;12.60;99.90;;;;;;5065679;28;20072;-72
2021/05/18 07:36:58;;;;;;;5.30;2.45;;;12.70;99.90;;;;;;5065079;28;20025;-74
2021/05/18 07:39:24;;;;;;;4.15;2.95;;;12.80;99.90;;;;;;5065551;28;20025;-73
2021/05/18 07:41:50;;;;;;;5.88;2.70;;;12.90;99.90;;;;;;5064890;28;20104;-77
2021/05/18 07:44:15;;;;;;;4.18;2.58;;;13.00;99.90;;;;;;5064538;28;20037;-74
2021/05/18 07:46:43;;;;;;;5.30;1.92;;;13.20;99.90;;;;;;5063846;28;20115;-74
2021/05/18 07:59:52;;;;;;;4.53;2.42;;;13.00;99.90;;;;;;5063755;28;20310;-73
2021/05/18 08:05:18;;;;;;;5.78;2.83;;;12.80;99.90;;;;;;5081066;28;20088;-74
2021/05/18 08:07:43;;;;;;;5.20;2.67;;;12.70;99.90;;;;;;5077511;28;20055;-77
2021/05/18 08:10:20;;;;;;;5.25;2.75;;;12.70;99.90;;;;;;5084901;28;20028;-75
2021/05/18 08:12:46;;;;;;;4.88;2.25;;;12.60;99.90;;;;;;5064803;28;20029;-74
2021/05/18 08:17:58;;;;;;;8.98;2.40;;;12.60;99.90;;;;;;5065181;28;20028;-74
2021/05/18 09:47:51;;;;;;;3.15;1.70;;;14.10;99.90;;;;;;5064294;28;20451;-78
2021/05/18 09:50:10;;;;;;;;;;;14.10;99.90;;;;;;5085625;28;20059;-76
2021/05/18 10:26:48;;;;;;;1.20;0.82;;;15.20;99.90;;;;;;5086860;28;20032;-76
2021/05/18 10:34:36;;;;;;;2.17;1.70;;;14.80;99.90;;;;;;5086357;28;20037;-74
2021/05/18 10:37:29;;;;;;;2.10;1.60;;;14.70;99.90;;;;;;5086377;28;20091;-75
2021/05/18 10:40:17;;;;;;;4.97;1.30;;;14.60;99.90;;;;;;5084615;28;20438;-73
2021/05/18 10:43:19;;;;;;;3.50;1.33;;;14.60;99.90;;;;;;5084745;28;20127;-75
2021/05/18 10:45:54;;;;;;;1.98;1.45;;;14.60;99.90;;;;;;5086138;28;20025;-74
2021/05/18 10:48:34;;;;;;;1.90;1.40;;;14.70;99.90;;;;;;5084854;28;20065;-75
2021/05/18 10:51:18;;;;;;;5.45;1.88;;;14.80;99.90;;;;;;5086348;28;20052;-74
2021/05/18 10:54:25;;;;;;;2.17;1.55;;;15.00;99.90;;;;;;5086254;28;20037;-76
2021/05/18 10:57:01;;;;;;;2.60;1.60;;;15.20;99.90;;;;;;5085748;28;20591;-73
2021/05/18 10:59:29;;;;;;;2.72;1.10;;;15.20;99.90;;;;;;5084653;28;20464;-74
2021/05/18 11:02:01;;;;;;;3.05;1.25;;;15.10;99.90;;;;;;5073942;28;20024;-77
2021/05/18 11:04:32;;;;;;;4.85;1.90;;;15.00;99.90;;;;;;5081121;28;20071;-75
2021/05/18 11:07:00;;;;;;;3.35;1.52;;;14.70;99.90;;;;;;5066154;28;20029;-74
2021/05/18 11:09:27;;;;;;;2.05;1.25;;;14.70;99.90;;;;;;5065799;28;20025;-74
2021/05/18 11:12:05;;;;;;;1.92;1.25;;;14.60;99.90;;;;;;5071257;28;20033;-74
2021/05/18 11:14:49;;;;;;;4.03;1.90;;;14.50;99.90;;;;;;5084383;28;20070;-78
2021/05/18 11:17:21;;;;;;;2.22;1.60;;;14.40;99.90;;;;;;5083221;28;20028;-72
2021/05/18 11:19:51;;;;;;;3.17;1.63;;;14.40;99.90;;;;;;5085357;28;20028;-75
2021/05/18 11:23:17;;;;;;;3.67;2.05;;;14.50;99.90;;;;;;5085053;28;20029;-79
2021/05/18 11:25:03;;;;;;;2.85;1.85;;;14.50;99.90;;;;;;5074988;28;20041;-75
2021/05/18 11:27:30;;;;;;;3.72;2.42;;;14.60;99.90;;;;;;5065385;28;20056;-76
2021/05/18 11:29:57;;;;;;;2.60;1.65;;;14.60;99.90;;;;;;5063473;28;20048;-74
2021/05/18 11:32:22;;;;;;;2.10;1.33;;;14.60;99.90;;;;;;5064846;28;20021;-73
2021/05/18 11:34:58;;;;;;;4.25;1.80;;;14.70;99.90;;;;;;5064824;28;20066;-77
2021/05/18 11:37:31;;;;;;;3.45;1.67;;;14.60;99.90;;;;;;5064876;28;20040;-74
2021/05/18 11:40:17;;;;;;;2.30;1.58;;;14.40;99.90;;;;;;5063553;28;20031;-75
2021/05/18 11:42:44;;;;;;;3.38;1.88;;;14.40;99.90;;;;;;5063211;28;20088;-78
2021/05/18 11:45:16;;;;;;;1.85;1.30;;;14.30;99.90;;;;;;5064273;28;20029;-77
2021/05/18 11:47:45;;;;;;;1.00;0.80;;;14.40;99.90;;;;;;5064871;28;20053;-74
2021/05/18 11:50:21;;;;;;;2.30;1.42;;;14.40;99.90;;;;;;5064391;28;20025;-75
2021/05/18 11:52:48;;;;;;;2.40;1.35;;;14.40;99.90;;;;;;5079425;28;20071;-76
2021/05/18 11:55:29;;;;;;;1.83;1.30;;;14.50;99.90;;;;;;5063382;28;20065;-75
2021/05/18 11:57:56;;;;;;;2.33;1.20;;;14.50;99.90;;;;;;5064634;28;20040;-75
2021/05/18 12:00:30;;;;;;;2.55;1.20;;;14.60;99.90;;;;;;5079792;28;20128;-75
2021/05/18 12:03:11;;;;;;;1.88;1.35;;;14.70;99.90;;;;;;5064306;28;20040;-75
2021/05/18 12:05:56;;;;;;;2.70;0.98;;;15.00;99.90;;;;;;5064282;28;20393;-74
2021/05/18 12:08:32;;;;;;;2.40;1.20;;;15.10;99.90;;;;;;5071532;28;20052;-72
2021/05/18 12:11:19;;;;;;;1.65;1.40;;;15.50;99.90;;;;;;5078641;28;20032;-76
2021/05/18 12:13:48;;;;;;;2.08;0.90;;;15.70;99.90;;;;;;5064098;28;20029;-74
2021/05/18 12:16:15;;;;;;;1.88;1.10;;;15.80;99.90;;;;;;5083760;28;20040;-75
2021/05/18 12:18:43;;;;;;;3.38;1.55;;;15.70;99.90;;;;;;5082515;28;20053;-74
2021/05/18 12:21:13;;;;;;;1.95;1.15;;;15.70;99.90;;;;;;5084029;28;20049;-76
2021/05/18 12:23:39;;;;;;;2.72;1.23;;;15.70;99.90;;;;;;5084335;28;20104;-77
2021/05/18 12:26:13;;;;;;;2.78;1.52;;;15.50;99.90;;;;;;5077495;28;20426;-77
2021/05/18 12:28:51;;;;;;;;;;;15.30;99.90;;;;;;5064089;28;20029;-77
2021/05/18 12:31:33;;;;;;;1.50;1.10;;;15.20;99.90;;;;;;5063944;28;20292;-75
2021/05/18 12:34:00;;;;;;;2.97;1.17;;;15.10;99.90;;;;;;5064257;28;20553;-75
2021/05/18 12:36:28;;;;;;;2.42;1.38;;;15.00;99.90;;;;;;5073127;28;20111;-76
2021/05/18 12:39:09;;;;;;;1.27;0.95;;;14.90;99.90;;;;;;5084835;28;20024;-74
2021/05/18 12:41:52;;;;;;;2.33;1.30;;;14.80;99.90;;;;;;5084164;28;20036;-75
2021/05/18 12:44:20;;;;;;;2.42;1.63;;;14.80;99.90;;;;;;5082971;28;20502;-75
2021/05/18 12:46:52;;;;;;;3.35;1.10;;;14.60;99.90;;;;;;5084437;28;20032;-74
2021/05/18 12:49:35;;;;;;;2.13;1.42;;;14.60;99.90;;;;;;5083799;28;20048;-74
2021/05/18 12:52:07;;;;;;;2.47;1.75;;;14.60;99.90;;;;;;5084029;28;20073;-74
2021/05/18 12:54:54;;;;;;;2.35;1.35;;;14.50;99.90;;;;;;5083987;28;20028;-75
2021/05/18 12:57:26;;;;;;;2.58;1.88;;;14.40;99.90;;;;;;5084097;28;20100;-75
2021/05/18 13:00:01;;;;;;;1.45;1.02;;;14.40;99.90;;;;;;5083375;28;20051;-74
2021/05/18 13:02:42;;;;;;;4.03;1.88;;;14.30;99.90;;;;;;5084050;28;20035;-79
2021/05/18 13:05:28;;;;;;;4.03;2.10;;;14.20;99.90;;;;;;5082637;28;20063;-76
2021/05/18 13:08:17;;;;;;;3.47;1.92;;;14.20;99.90;;;;;;5084380;28;20044;-76
2021/05/18 13:13:48;;;;;;;2.65;1.73;;;14.10;99.90;;;;;;5084434;28;20033;-75
2021/05/18 13:16:21;;;;;;;4.85;2.25;;;13.90;99.90;;;;;;5080176;28;20052;-75
2021/05/18 13:18:59;;;;;;;2.85;1.65;;;13.70;99.90;;;;;;5084097;28;20104;-74
2021/05/18 13:21:48;;;;;;;3.88;1.70;;;13.70;99.90;;;;;;5084756;28;20025;-74
2021/05/18 13:26:40;;;;;;;7.57;3.20;;;13.50;99.90;;;;;;5079975;28;20036;-74
2021/05/18 13:29:08;;;;;;;5.07;2.67;;;13.50;99.90;;;;;;5083118;28;20016;-73
2021/05/18 13:31:37;;;;;;;3.97;2.38;;;13.40;99.90;;;;;;5083953;28;20085;-73
2021/05/18 13:34:03;;;;;;;3.67;2.30;;;13.30;99.90;;;;;;5081806;28;20143;-74
2021/05/18 13:36:34;;;;;;;2.75;1.90;;;13.30;99.90;;;;;;5062383;28;20056;-75
2021/05/18 13:39:06;;;;;;;4.55;2.30;;;13.20;99.90;;;;;;5062770;28;20033;-75
2021/05/18 13:41:33;;;;;;;4.03;2.42;;;13.20;99.90;;;;;;5067206;28;20021;-75
2021/05/18 13:43:59;;;;;;;2.83;1.75;;;13.30;99.90;;;;;;5068038;28;20028;-73
2021/05/18 13:46:25;;;;;;;5.53;2.65;;;13.40;99.90;;;;;;5068214;28;20033;-73
2021/05/18 13:48:50;;;;;;;3.60;2.10;;;13.60;99.90;;;;;;5066663;28;20104;-74
2021/05/18 13:51:16;;;;;;;5.85;2.30;;;13.90;99.90;;;;;;5065716;28;20040;-73
2021/05/18 13:53:43;;;;;;;3.83;2.65;;;14.30;99.90;;;;;;5068502;28;20024;-72
2021/05/18 13:56:10;;;;;;;5.78;2.78;;;14.70;99.90;;;;;;5069743;28;20033;-74
2021/05/18 13:58:36;;;;;;;3.90;2.70;;;15.00;99.90;;;;;;5066741;28;20036;-72
2021/05/18 14:01:06;;;;;;;4.10;2.33;;;15.20;99.90;;;;;;5066152;28;20390;-73
2021/05/18 14:03:33;;;;;;;2.58;1.80;;;15.60;99.90;;;;;;5067052;28;20032;-74
2021/05/18 14:05:58;;;;;;;1.52;1.10;;;16.20;99.90;;;;;;5082530;28;20052;-73
2021/05/18 14:08:32;;;;;;;4.10;1.63;;;16.90;99.90;;;;;;5086269;28;20032;-73
2021/05/18 14:11:00;;;;;;;3.33;1.63;;;17.30;99.90;;;;;;5086215;28;20029;-75
2021/05/18 14:13:31;;;;;;;1.92;1.63;;;17.60;99.90;;;;;;5087472;28;20033;-75
2021/05/18 14:15:57;;;;;;;2.97;1.45;;;17.90;99.90;;;;;;5087239;28;20028;-75
2021/05/18 14:18:23;;;;;;;2.50;1.70;;;17.80;99.90;;;;;;5087025;28;20067;-73
2021/05/18 14:20:49;;;;;;;3.05;2.05;;;17.80;99.90;;;;;;5087523;28;20240;-74
2021/05/18 14:23:27;;;;;;;1.95;1.15;;;17.90;99.90;;;;;;5087613;28;20062;-74
2021/05/18 14:25:54;;;;;;;1.63;1.20;;;17.60;99.90;;;;;;5087378;28;20056;-73
2021/05/18 14:28:21;;;;;;;2.13;1.17;;;17.10;99.90;;;;;;5086184;28;20088;-74
2021/05/18 14:30:48;;;;;;;1.85;1.13;;;16.80;99.90;;;;;;5087175;28;20025;-72
2021/05/18 14:33:13;;;;;;;1.55;1.10;;;16.50;99.90;;;;;;5068872;28;20026;-73
2021/05/18 14:35:39;;;;;;;1.40;0.90;;;16.10;99.90;;;;;;5064528;28;20086;-73
2021/05/18 14:38:12;;;;;;;3.50;1.20;;;15.80;99.90;;;;;;5066727;28;20092;-71
2021/05/18 14:40:48;;;;;;;2.25;1.40;;;15.70;99.90;;;;;;5064370;28;20435;-73
2021/05/18 14:46:29;;;;;;;2.78;1.50;;;15.40;99.90;;;;;;5065605;28;20033;-72
2021/05/18 14:54:43;;;;;;;3.33;1.65;;;15.20;99.90;;;;;;5066702;28;20071;-75
2021/05/18 14:57:09;;;;;;;2.72;1.38;;;15.20;99.90;;;;;;5066852;28;20037;-75
2021/05/18 14:59:35;;;;;;;2.83;1.65;;;15.40;99.90;;;;;;5079587;28;20025;-75
2021/05/18 15:02:03;;;;;;;3.22;1.88;;;15.50;99.90;;;;;;5065153;28;20028;-75
2021/05/18 15:04:28;;;;;;;2.97;1.80;;;15.50;99.90;;;;;;5065639;28;20429;-76
2021/05/18 15:06:54;;;;;;;2.08;1.20;;;15.50;99.90;;;;;;5077526;28;20028;-74
2021/05/18 15:09:20;;;;;;;3.15;1.73;;;15.60;99.90;;;;;;5086358;28;20032;-71
2021/05/18 15:11:45;;;;;;;2.15;1.38;;;15.70;99.90;;;;;;5087127;28;20032;-72
2021/05/18 15:14:11;;;;;;;2.40;1.63;;;15.70;99.90;;;;;;5086183;28;20052;-75
2021/05/18 15:16:36;;;;;;;3.00;1.38;;;15.60;99.90;;;;;;5085697;28;20041;-73
2021/05/18 15:19:10;;;;;;;3.38;1.55;;;15.60;99.90;;;;;;5084652;28;20032;-72
2021/05/18 15:21:36;;;;;;;2.70;1.38;;;15.80;99.90;;;;;;5077101;28;20036;-76
2021/05/18 15:24:04;;;;;;;1.98;1.10;;;16.60;99.90;;;;;;5071198;28;20044;-74
2021/05/18 15:26:29;;;;;;;1.23;1.02;;;17.70;99.90;;;;;;5064965;28;20037;-72
2021/05/18 15:28:55;;;;;;;2.90;1.08;;;18.50;99.90;;;;;;5077558;28;20064;-73
2021/05/18 15:31:21;;;;;;;1.88;1.35;;;19.00;99.90;;;;;;5084721;28;20036;-73
2021/05/18 15:33:46;;;;;;;2.20;1.23;;;19.20;99.90;;;;;;5084935;28;20550;-71
2021/05/18 15:36:15;;;;;;;4.35;1.30;;;19.20;99.90;;;;;;5085740;28;20044;-73
2021/05/18 15:38:42;;;;;;;1.08;0.93;;;19.40;99.90;;;;;;5086043;28;20031;-74
2021/05/18 15:41:08;;;;;;;2.22;1.48;;;20.00;99.90;;;;;;5085803;28;20025;-76
2021/05/18 15:43:37;;;;;;;1.33;0.75;;;20.60;99.90;;;;;;5084108;28;20037;-71
2021/05/18 15:46:04;;;;;;;1.90;0.98;;;20.90;99.90;;;;;;5086073;28;20055;-75
2021/05/18 15:48:30;;;;;;;1.92;1.13;;;20.90;99.90;;;;;;5086022;28;20020;-74
2021/05/18 15:50:56;;;;;;;1.70;0.65;;;21.20;99.90;;;;;;5085231;28;20028;-76
2021/05/18 15:53:22;;;;;;;0.82;0.60;;;21.00;99.90;;;;;;5085399;28;20056;-73
2021/05/18 15:55:48;;;;;;;1.65;1.00;;;21.00;99.90;;;;;;5083797;28;20041;-75
2021/05/18 15:58:14;;;;;;;0.88;0.73;;;20.80;99.90;;;;;;5084132;28;20055;-76
2021/05/18 16:00:40;;;;;;;0.95;0.60;;;20.00;99.90;;;;;;5084113;28;20024;-75
2021/05/18 16:03:06;;;;;;;0.85;0.50;;;19.30;99.90;;;;;;5064635;28;20029;-78
2021/05/18 16:05:33;;;;;;;1.27;0.90;;;19.00;99.90;;;;;;5070944;28;20501;-77
2021/05/18 16:08:09;;;;;;;1.60;0.80;;;19.60;99.90;;;;;;5065429;28;20046;-72
2021/05/18 16:10:35;;;;;;;0.80;0.63;;;20.30;99.90;;;;;;5079026;28;20044;-73
2021/05/18 16:13:00;;;;;;;1.30;0.80;;;21.10;99.90;;;;;;5083688;28;20054;-74
2021/05/18 16:15:26;;;;;;;0.95;0.73;;;21.60;99.90;;;;;;5080465;28;20044;-73
2021/05/18 16:17:52;;;;;;;0.93;0.80;;;22.10;99.90;;;;;;5064920;28;20025;-75
2021/05/18 16:20:18;;;;;;;0.85;0.38;;;22.40;99.90;;;;;;5064697;28;20021;-76
2021/05/18 16:22:44;;;;;;;0.63;0.40;;;22.50;99.90;;;;;;5063749;28;20032;-74
2021/05/18 16:25:10;;;;;;;1.10;0.57;;;22.50;99.90;;;;;;5065201;28;20025;-74
2021/05/18 16:27:35;;;;;;;0.95;0.68;;;22.70;99.90;;;;;;5064772;28;20029;-77
2021/05/18 16:30:01;;;;;;;0.80;0.50;;;22.70;99.90;;;;;;5063931;28;20025;-74
2021/05/18 16:32:27;;;;;;;0.75;0.57;;;22.70;99.90;;;;;;5080543;28;20024;-71
2021/05/18 16:34:52;;;;;;;0.95;0.65;;;22.20;99.90;;;;;;5085032;28;20093;-74
2021/05/18 16:37:18;;;;;;;1.17;0.50;;;21.40;99.90;;;;;;5084926;28;20031;-75
2021/05/18 16:39:43;;;;;;;1.75;0.65;;;21.00;99.90;;;;;;5083150;28;20028;-75
2021/05/18 16:42:09;;;;;;;1.55;0.93;;;20.80;99.90;;;;;;5084766;28;20028;-72
2021/05/18 16:44:35;;;;;;;1.65;0.68;;;20.50;99.90;;;;;;5084756;28;20088;-74
2021/05/18 16:47:00;;;;;;;1.60;0.98;;;20.20;99.90;;;;;;5083393;28;20054;-76
2021/05/18 16:49:26;;;;;;;1.23;0.65;;;19.60;99.90;;;;;;5085214;28;20035;-75
2021/05/18 16:51:53;;;;;;;0.80;0.60;;;19.00;99.90;;;;;;5083110;28;20064;-74
2021/05/18 16:54:18;;;;;;;1.77;0.95;;;18.40;99.90;;;;;;5084658;28;20024;-74
2021/05/18 16:56:45;;;;;;;1.65;1.00;;;17.80;99.90;;;;;;5083689;28;20038;-75
2021/05/18 16:59:11;;;;;;;0.90;0.77;;;17.40;99.90;;;;;;5084563;28;20021;-70
2021/05/18 17:01:36;;;;;;;1.75;0.90;;;17.10;99.90;;;;;;5084453;28;20032;-73
2021/05/18 17:04:02;;;;;;;1.35;0.70;;;16.70;99.90;;;;;;5084595;28;20085;-73
2021/05/18 17:06:28;;;;;;;1.20;0.85;;;16.50;99.90;;;;;;5084241;28;20025;-73
2021/05/18 17:08:54;;;;;;;0.95;0.55;;;16.30;99.90;;;;;;5080284;28;20058;-73
2021/05/18 17:11:20;;;;;;;2.38;0.68;;;16.30;99.90;;;;;;5062446;28;20041;-74
2021/05/18 17:13:45;;;;;;;2.00;0.77;;;16.30;99.90;;;;;;5083738;28;20387;-75
2021/05/18 17:16:11;;;;;;;6.68;0.70;;;16.50;99.90;;;;;;5087497;28;20499;-74
2021/05/18 17:18:37;;;;;;;3.25;0.98;;;16.40;99.90;;;;;;5079537;28;20089;-74
2021/05/18 17:21:04;;;;;;;2.13;1.15;;;16.20;99.90;;;;;;5067029;28;20028;-74
2021/05/18 17:23:30;;;;;;;0.80;0.70;;;16.20;99.90;;;;;;5069480;28;20025;-75
2021/05/18 17:25:56;;;;;;;3.67;0.93;;;16.00;99.90;;;;;;5068612;28;20029;-75
2021/05/18 17:28:22;;;;;;;2.67;0.80;;;15.80;99.90;;;;;;5068153;28;20048;-74
2021/05/18 17:30:50;;;;;;;0.80;0.70;;;15.60;99.90;;;;;;5067675;28;20040;-73
2021/05/18 17:33:17;;;;;;;1.15;0.85;;;15.40;99.90;;;;;;5070761;28;20034;-76
2021/05/18 17:35:44;;;;;;;1.45;0.73;;;15.30;99.90;;;;;;5073024;28;20037;-73
2021/05/18 17:38:10;;;;;;;0.52;0.32;;;15.10;99.90;;;;;;5070536;28;20034;-75
2021/05/18 17:40:38;;;;;;;0.93;0.55;;;15.10;99.90;;;;;;5078547;28;20495;-74